sensor_id;sensor_type;location;lat;lon;timestamp;P1;durP1;ratioP1;P2;durP2;ratioP2
71513;SDS011;59335;46.652;21.272;2023-02-28T00:01:00;9.65;;;5.50;;
71513;SDS011;59335;46.652;21.272;2023-02-28T00:04:02;9.38;;;5.45;;
71513;SDS011;59335;46.652;21.272;2023-02-28T00:07:05;10.07;;;5.43;;
71513;SDS011;59335;46.652;21.272;2023-02-28T00:10:09;9.90;;;5.00;;
71513;SDS011;59335;46.652;21.272;2023-02-28T00:13:14;9.67;;;5.23;;
71513;SDS011;59335;46.652;21.272;2023-02-28T00:16:19;9.13;;;5.55;;
71513;SDS011;59335;46.652;21.272;2023-02-28T00:19:23;8.75;;;5.38;;
71513;SDS011;59335;46.652;21.272;2023-02-28T00:22:26;9.85;;;5.30;;
71513;SDS011;59335;46.652;21.272;2023-02-28T00:25:28;9.95;;;5.65;;
71513;SDS011;59335;46.652;21.272;2023-02-28T00:28:31;8.47;;;4.90;;
71513;SDS011;59335;46.652;21.272;2023-02-28T00:31:34;8.85;;;4.82;;
71513;SDS011;59335;46.652;21.272;2023-02-28T00:34:36;9.60;;;5.45;;
71513;SDS011;59335;46.652;21.272;2023-02-28T00:37:39;9.40;;;5.22;;
71513;SDS011;59335;46.652;21.272;2023-02-28T00:40:42;9.68;;;5.18;;
71513;SDS011;59335;46.652;21.272;2023-02-28T00:43:45;9.77;;;4.83;;
71513;SDS011;59335;46.652;21.272;2023-02-28T00:46:48;8.63;;;5.00;;
71513;SDS011;59335;46.652;21.272;2023-02-28T00:49:51;8.70;;;5.15;;
71513;SDS011;59335;46.652;21.272;2023-02-28T00:52:53;9.20;;;4.97;;
71513;SDS011;59335;46.652;21.272;2023-02-28T00:55:56;8.00;;;4.80;;
71513;SDS011;59335;46.652;21.272;2023-02-28T00:59:00;8.33;;;4.73;;
71513;SDS011;59335;46.652;21.272;2023-02-28T01:02:03;8.38;;;4.85;;
71513;SDS011;59335;46.652;21.272;2023-02-28T01:05:06;7.85;;;4.75;;
71513;SDS011;59335;46.652;21.272;2023-02-28T01:08:09;8.75;;;4.80;;
71513;SDS011;59335;46.652;21.272;2023-02-28T01:11:13;8.57;;;4.90;;
71513;SDS011;59335;46.652;21.272;2023-02-28T01:14:17;8.20;;;4.77;;
71513;SDS011;59335;46.652;21.272;2023-02-28T01:17:20;8.40;;;5.00;;
71513;SDS011;59335;46.652;21.272;2023-02-28T01:20:23;7.65;;;4.55;;
71513;SDS011;59335;46.652;21.272;2023-02-28T01:23:26;9.32;;;4.80;;
71513;SDS011;59335;46.652;21.272;2023-02-28T01:26:29;8.07;;;4.93;;
71513;SDS011;59335;46.652;21.272;2023-02-28T01:29:32;8.17;;;4.60;;
71513;SDS011;59335;46.652;21.272;2023-02-28T01:32:35;9.30;;;4.70;;
71513;SDS011;59335;46.652;21.272;2023-02-28T01:35:38;8.55;;;5.28;;
71513;SDS011;59335;46.652;21.272;2023-02-28T01:38:42;8.65;;;4.90;;
71513;SDS011;59335;46.652;21.272;2023-02-28T01:41:45;8.60;;;5.00;;
71513;SDS011;59335;46.652;21.272;2023-02-28T01:44:59;8.37;;;4.40;;
71513;SDS011;59335;46.652;21.272;2023-02-28T01:48:06;9.07;;;4.25;;
71513;SDS011;59335;46.652;21.272;2023-02-28T01:51:11;8.30;;;4.50;;
71513;SDS011;59335;46.652;21.272;2023-02-28T01:54:24;8.45;;;4.50;;
71513;SDS011;59335;46.652;21.272;2023-02-28T01:57:30;10.40;;;5.15;;
71513;SDS011;59335;46.652;21.272;2023-02-28T02:00:39;7.57;;;4.47;;
71513;SDS011;59335;46.652;21.272;2023-02-28T02:03:45;8.30;;;4.80;;
71513;SDS011;59335;46.652;21.272;2023-02-28T02:06:47;7.45;;;4.78;;
71513;SDS011;59335;46.652;21.272;2023-02-28T02:09:56;8.50;;;4.57;;
71513;SDS011;59335;46.652;21.272;2023-02-28T02:23:31;7.97;;;4.72;;
71513;SDS011;59335;46.652;21.272;2023-02-28T02:33:45;7.57;;;4.30;;
71513;SDS011;59335;46.652;21.272;2023-02-28T02:40:43;7.72;;;4.75;;
71513;SDS011;59335;46.652;21.272;2023-02-28T02:47:24;9.00;;;5.00;;
71513;SDS011;59335;46.652;21.272;2023-02-28T02:50:31;7.83;;;4.43;;
71513;SDS011;59335;46.652;21.272;2023-02-28T02:53:40;7.20;;;4.70;;
71513;SDS011;59335;46.652;21.272;2023-02-28T02:56:59;7.10;;;4.05;;
71513;SDS011;59335;46.652;21.272;2023-02-28T03:00:07;8.23;;;4.70;;
71513;SDS011;59335;46.652;21.272;2023-02-28T03:03:12;8.13;;;5.05;;
71513;SDS011;59335;46.652;21.272;2023-02-28T03:06:15;7.23;;;4.20;;
71513;SDS011;59335;46.652;21.272;2023-02-28T03:09:18;7.68;;;4.30;;
71513;SDS011;59335;46.652;21.272;2023-02-28T03:12:21;7.53;;;4.47;;
71513;SDS011;59335;46.652;21.272;2023-02-28T03:15:32;7.80;;;4.53;;
71513;SDS011;59335;46.652;21.272;2023-02-28T03:25:35;7.78;;;4.28;;
71513;SDS011;59335;46.652;21.272;2023-02-28T03:31:58;8.40;;;4.28;;
71513;SDS011;59335;46.652;21.272;2023-02-28T03:41:41;7.85;;;4.50;;
71513;SDS011;59335;46.652;21.272;2023-02-28T03:45:05;6.93;;;4.40;;
71513;SDS011;59335;46.652;21.272;2023-02-28T03:51:48;8.73;;;4.50;;
71513;SDS011;59335;46.652;21.272;2023-02-28T03:54:54;7.57;;;4.40;;
71513;SDS011;59335;46.652;21.272;2023-02-28T04:01:33;6.47;;;4.03;;
71513;SDS011;59335;46.652;21.272;2023-02-28T04:04:48;7.63;;;4.60;;
71513;SDS011;59335;46.652;21.272;2023-02-28T04:07:51;8.02;;;4.20;;
71513;SDS011;59335;46.652;21.272;2023-02-28T04:11:01;7.60;;;4.30;;
71513;SDS011;59335;46.652;21.272;2023-02-28T04:14:15;7.18;;;4.22;;
71513;SDS011;59335;46.652;21.272;2023-02-28T04:17:17;7.55;;;4.10;;
71513;SDS011;59335;46.652;21.272;2023-02-28T04:20:21;7.55;;;4.25;;
71513;SDS011;59335;46.652;21.272;2023-02-28T04:23:23;7.40;;;4.13;;
71513;SDS011;59335;46.652;21.272;2023-02-28T04:26:33;6.77;;;4.37;;
71513;SDS011;59335;46.652;21.272;2023-02-28T04:29:37;7.20;;;4.35;;
71513;SDS011;59335;46.652;21.272;2023-02-28T04:32:40;8.40;;;4.50;;
71513;SDS011;59335;46.652;21.272;2023-02-28T04:35:43;8.15;;;4.35;;
71513;SDS011;59335;46.652;21.272;2023-02-28T04:38:48;6.75;;;4.05;;
71513;SDS011;59335;46.652;21.272;2023-02-28T04:41:51;7.33;;;4.10;;
71513;SDS011;59335;46.652;21.272;2023-02-28T04:44:54;7.30;;;4.10;;
71513;SDS011;59335;46.652;21.272;2023-02-28T04:47:56;6.63;;;4.07;;
71513;SDS011;59335;46.652;21.272;2023-02-28T04:51:02;8.52;;;3.97;;
71513;SDS011;59335;46.652;21.272;2023-02-28T04:54:05;6.85;;;3.67;;
71513;SDS011;59335;46.652;21.272;2023-02-28T04:57:08;7.70;;;4.20;;
71513;SDS011;59335;46.652;21.272;2023-02-28T05:00:12;7.18;;;4.07;;
71513;SDS011;59335;46.652;21.272;2023-02-28T05:03:20;7.63;;;4.30;;
71513;SDS011;59335;46.652;21.272;2023-02-28T05:06:25;6.57;;;4.07;;
71513;SDS011;59335;46.652;21.272;2023-02-28T05:09:29;7.40;;;4.40;;
71513;SDS011;59335;46.652;21.272;2023-02-28T05:12:32;7.23;;;4.13;;
71513;SDS011;59335;46.652;21.272;2023-02-28T05:15:35;7.75;;;4.22;;
71513;SDS011;59335;46.652;21.272;2023-02-28T05:18:38;7.65;;;4.35;;
71513;SDS011;59335;46.652;21.272;2023-02-28T05:21:41;6.80;;;4.20;;
71513;SDS011;59335;46.652;21.272;2023-02-28T05:24:53;7.32;;;4.22;;
71513;SDS011;59335;46.652;21.272;2023-02-28T05:27:55;7.50;;;4.27;;
71513;SDS011;59335;46.652;21.272;2023-02-28T05:30:59;8.00;;;3.97;;
71513;SDS011;59335;46.652;21.272;2023-02-28T05:34:02;7.40;;;4.13;;
71513;SDS011;59335;46.652;21.272;2023-02-28T05:37:06;7.60;;;4.20;;
71513;SDS011;59335;46.652;21.272;2023-02-28T05:40:14;7.25;;;4.30;;
71513;SDS011;59335;46.652;21.272;2023-02-28T05:43:17;8.60;;;4.57;;
71513;SDS011;59335;46.652;21.272;2023-02-28T05:46:20;10.98;;;5.10;;
71513;SDS011;59335;46.652;21.272;2023-02-28T05:49:23;8.70;;;5.00;;
71513;SDS011;59335;46.652;21.272;2023-02-28T05:52:27;7.10;;;4.32;;
71513;SDS011;59335;46.652;21.272;2023-02-28T05:55:32;7.68;;;4.55;;
71513;SDS011;59335;46.652;21.272;2023-02-28T05:58:34;7.80;;;4.60;;
71513;SDS011;59335;46.652;21.272;2023-02-28T06:01:38;7.53;;;4.32;;
71513;SDS011;59335;46.652;21.272;2023-02-28T06:04:43;8.77;;;5.38;;
71513;SDS011;59335;46.652;21.272;2023-02-28T06:07:46;7.47;;;4.45;;
71513;SDS011;59335;46.652;21.272;2023-02-28T06:10:49;8.45;;;4.63;;
71513;SDS011;59335;46.652;21.272;2023-02-28T06:13:53;8.87;;;4.20;;
71513;SDS011;59335;46.652;21.272;2023-02-28T06:17:01;8.02;;;4.45;;
71513;SDS011;59335;46.652;21.272;2023-02-28T06:20:05;7.20;;;4.32;;
71513;SDS011;59335;46.652;21.272;2023-02-28T06:23:08;8.60;;;4.38;;
71513;SDS011;59335;46.652;21.272;2023-02-28T06:26:11;8.73;;;4.57;;
71513;SDS011;59335;46.652;21.272;2023-02-28T06:29:16;13.67;;;4.60;;
71513;SDS011;59335;46.652;21.272;2023-02-28T06:32:20;8.50;;;4.13;;
71513;SDS011;59335;46.652;21.272;2023-02-28T06:35:23;7.25;;;4.30;;
71513;SDS011;59335;46.652;21.272;2023-02-28T06:38:27;8.80;;;4.30;;
71513;SDS011;59335;46.652;21.272;2023-02-28T06:41:30;8.10;;;4.78;;
71513;SDS011;59335;46.652;21.272;2023-02-28T06:44:53;7.47;;;4.20;;
71513;SDS011;59335;46.652;21.272;2023-02-28T06:47:55;7.97;;;4.05;;
71513;SDS011;59335;46.652;21.272;2023-02-28T06:51:08;8.57;;;3.97;;
71513;SDS011;59335;46.652;21.272;2023-02-28T06:54:13;6.78;;;3.78;;
71513;SDS011;59335;46.652;21.272;2023-02-28T06:57:16;7.15;;;4.00;;
71513;SDS011;59335;46.652;21.272;2023-02-28T07:00:22;7.43;;;3.87;;
71513;SDS011;59335;46.652;21.272;2023-02-28T07:03:25;11.82;;;4.13;;
71513;SDS011;59335;46.652;21.272;2023-02-28T07:06:28;12.70;;;4.30;;
71513;SDS011;59335;46.652;21.272;2023-02-28T07:09:32;6.93;;;4.10;;
71513;SDS011;59335;46.652;21.272;2023-02-28T07:12:35;12.23;;;4.65;;
71513;SDS011;59335;46.652;21.272;2023-02-28T07:15:52;9.57;;;3.80;;
71513;SDS011;59335;46.652;21.272;2023-02-28T07:19:51;8.50;;;3.90;;
71513;SDS011;59335;46.652;21.272;2023-02-28T07:23:28;8.23;;;4.13;;
71513;SDS011;59335;46.652;21.272;2023-02-28T07:26:50;10.23;;;4.18;;
71513;SDS011;59335;46.652;21.272;2023-02-28T07:29:54;8.63;;;4.10;;
71513;SDS011;59335;46.652;21.272;2023-02-28T07:32:57;9.33;;;4.10;;
71513;SDS011;59335;46.652;21.272;2023-02-28T07:36:02;8.63;;;3.70;;
71513;SDS011;59335;46.652;21.272;2023-02-28T07:39:08;9.40;;;3.80;;
71513;SDS011;59335;46.652;21.272;2023-02-28T07:42:13;10.65;;;3.90;;
71513;SDS011;59335;46.652;21.272;2023-02-28T07:45:17;12.30;;;4.00;;
71513;SDS011;59335;46.652;21.272;2023-02-28T07:48:20;10.77;;;4.10;;
71513;SDS011;59335;46.652;21.272;2023-02-28T07:51:23;10.13;;;4.28;;
71513;SDS011;59335;46.652;21.272;2023-02-28T07:54:26;10.13;;;4.30;;
71513;SDS011;59335;46.652;21.272;2023-02-28T07:57:31;8.95;;;4.30;;
71513;SDS011;59335;46.652;21.272;2023-02-28T08:00:37;17.23;;;9.75;;
71513;SDS011;59335;46.652;21.272;2023-02-28T08:03:40;14.50;;;7.73;;
71513;SDS011;59335;46.652;21.272;2023-02-28T08:06:43;11.70;;;5.70;;
71513;SDS011;59335;46.652;21.272;2023-02-28T08:09:46;10.40;;;5.57;;
71513;SDS011;59335;46.652;21.272;2023-02-28T08:12:49;10.90;;;5.15;;
71513;SDS011;59335;46.652;21.272;2023-02-28T08:15:53;10.32;;;5.82;;
71513;SDS011;59335;46.652;21.272;2023-02-28T08:18:57;10.87;;;5.33;;
71513;SDS011;59335;46.652;21.272;2023-02-28T08:22:00;8.10;;;5.00;;
71513;SDS011;59335;46.652;21.272;2023-02-28T08:25:04;8.75;;;5.30;;
71513;SDS011;59335;46.652;21.272;2023-02-28T08:28:10;9.52;;;5.43;;
71513;SDS011;59335;46.652;21.272;2023-02-28T08:31:13;18.85;;;5.75;;
71513;SDS011;59335;46.652;21.272;2023-02-28T08:34:17;9.47;;;5.40;;
71513;SDS011;59335;46.652;21.272;2023-02-28T08:37:20;12.10;;;5.40;;
71513;SDS011;59335;46.652;21.272;2023-02-28T08:40:23;9.73;;;5.63;;
71513;SDS011;59335;46.652;21.272;2023-02-28T08:43:28;11.25;;;5.53;;
71513;SDS011;59335;46.652;21.272;2023-02-28T08:46:31;9.00;;;5.20;;
71513;SDS011;59335;46.652;21.272;2023-02-28T08:49:34;9.77;;;5.63;;
71513;SDS011;59335;46.652;21.272;2023-02-28T08:52:37;10.45;;;5.22;;
71513;SDS011;59335;46.652;21.272;2023-02-28T08:55:40;9.10;;;5.05;;
71513;SDS011;59335;46.652;21.272;2023-02-28T08:58:46;14.68;;;5.18;;
71513;SDS011;59335;46.652;21.272;2023-02-28T09:01:54;11.05;;;5.47;;
71513;SDS011;59335;46.652;21.272;2023-02-28T09:04:57;10.43;;;5.40;;
71513;SDS011;59335;46.652;21.272;2023-02-28T09:08:00;12.45;;;5.57;;
71513;SDS011;59335;46.652;21.272;2023-02-28T09:11:03;12.63;;;5.68;;
71513;SDS011;59335;46.652;21.272;2023-02-28T09:14:08;11.32;;;5.55;;
71513;SDS011;59335;46.652;21.272;2023-02-28T09:17:12;11.45;;;5.57;;
71513;SDS011;59335;46.652;21.272;2023-02-28T09:20:18;12.20;;;5.53;;
71513;SDS011;59335;46.652;21.272;2023-02-28T09:23:24;11.13;;;5.97;;
71513;SDS011;59335;46.652;21.272;2023-02-28T09:26:27;13.48;;;6.53;;
71513;SDS011;59335;46.652;21.272;2023-02-28T09:29:44;12.77;;;5.85;;
71513;SDS011;59335;46.652;21.272;2023-02-28T09:32:47;14.73;;;7.05;;
71513;SDS011;59335;46.652;21.272;2023-02-28T09:35:58;9.77;;;5.40;;
71513;SDS011;59335;46.652;21.272;2023-02-28T09:39:04;12.63;;;6.38;;
71513;SDS011;59335;46.652;21.272;2023-02-28T09:49:05;11.20;;;6.32;;
71513;SDS011;59335;46.652;21.272;2023-02-28T09:52:21;11.47;;;6.00;;
71513;SDS011;59335;46.652;21.272;2023-02-28T09:55:42;14.02;;;6.28;;
71513;SDS011;59335;46.652;21.272;2023-02-28T09:58:58;14.38;;;5.95;;
71513;SDS011;59335;46.652;21.272;2023-02-28T10:10:39;10.83;;;5.47;;
71513;SDS011;59335;46.652;21.272;2023-02-28T10:17:22;11.38;;;6.03;;
71513;SDS011;59335;46.652;21.272;2023-02-28T10:20:28;14.05;;;5.75;;
71513;SDS011;59335;46.652;21.272;2023-02-28T10:23:36;12.90;;;6.13;;
71513;SDS011;59335;46.652;21.272;2023-02-28T10:26:40;12.87;;;6.10;;
71513;SDS011;59335;46.652;21.272;2023-02-28T10:29:49;12.23;;;6.30;;
71513;SDS011;59335;46.652;21.272;2023-02-28T10:32:56;12.38;;;5.75;;
71513;SDS011;59335;46.652;21.272;2023-02-28T10:36:02;12.13;;;6.13;;
71513;SDS011;59335;46.652;21.272;2023-02-28T10:49:14;11.30;;;5.63;;
71513;SDS011;59335;46.652;21.272;2023-02-28T10:52:37;11.73;;;6.00;;
71513;SDS011;59335;46.652;21.272;2023-02-28T10:55:42;13.10;;;6.20;;
71513;SDS011;59335;46.652;21.272;2023-02-28T10:59:03;14.47;;;8.70;;
71513;SDS011;59335;46.652;21.272;2023-02-28T11:02:34;11.95;;;8.07;;
71513;SDS011;59335;46.652;21.272;2023-02-28T11:05:40;13.32;;;7.68;;
71513;SDS011;59335;46.652;21.272;2023-02-28T11:08:48;13.23;;;6.75;;
71513;SDS011;59335;46.652;21.272;2023-02-28T11:11:54;13.30;;;7.15;;
71513;SDS011;59335;46.652;21.272;2023-02-28T11:18:30;14.32;;;6.82;;
71513;SDS011;59335;46.652;21.272;2023-02-28T11:21:47;12.05;;;6.20;;
71513;SDS011;59335;46.652;21.272;2023-02-28T11:24:57;12.35;;;6.10;;
71513;SDS011;59335;46.652;21.272;2023-02-28T11:28:05;14.60;;;6.65;;
71513;SDS011;59335;46.652;21.272;2023-02-28T11:31:28;9.70;;;5.73;;
71513;SDS011;59335;46.652;21.272;2023-02-28T11:34:33;10.13;;;6.47;;
71513;SDS011;59335;46.652;21.272;2023-02-28T11:37:38;12.18;;;6.55;;
71513;SDS011;59335;46.652;21.272;2023-02-28T11:40:43;11.63;;;6.28;;
71513;SDS011;59335;46.652;21.272;2023-02-28T11:44:04;13.85;;;6.38;;
71513;SDS011;59335;46.652;21.272;2023-02-28T11:47:15;14.37;;;7.03;;
71513;SDS011;59335;46.652;21.272;2023-02-28T11:54:07;11.27;;;6.30;;
71513;SDS011;59335;46.652;21.272;2023-02-28T12:00:50;15.00;;;6.63;;
71513;SDS011;59335;46.652;21.272;2023-02-28T12:04:15;13.00;;;6.53;;
71513;SDS011;59335;46.652;21.272;2023-02-28T12:21:31;16.17;;;6.57;;
71513;SDS011;59335;46.652;21.272;2023-02-28T12:28:06;14.05;;;7.03;;
71513;SDS011;59335;46.652;21.272;2023-02-28T12:34:23;11.68;;;6.30;;
71513;SDS011;59335;46.652;21.272;2023-02-28T12:40:44;11.65;;;6.57;;
71513;SDS011;59335;46.652;21.272;2023-02-28T12:43:52;12.75;;;6.45;;
71513;SDS011;59335;46.652;21.272;2023-02-28T12:47:09;14.00;;;7.53;;
71513;SDS011;59335;46.652;21.272;2023-02-28T12:50:18;18.42;;;7.63;;
71513;SDS011;59335;46.652;21.272;2023-02-28T13:00:03;21.48;;;7.43;;
71513;SDS011;59335;46.652;21.272;2023-02-28T13:03:33;16.08;;;7.53;;
71513;SDS011;59335;46.652;21.272;2023-02-28T13:10:04;15.43;;;7.27;;
71513;SDS011;59335;46.652;21.272;2023-02-28T13:13:17;19.67;;;8.38;;
71513;SDS011;59335;46.652;21.272;2023-02-28T13:16:21;13.57;;;7.15;;
71513;SDS011;59335;46.652;21.272;2023-02-28T13:19:28;16.92;;;7.32;;
71513;SDS011;59335;46.652;21.272;2023-02-28T13:35:13;18.10;;;7.22;;
71513;SDS011;59335;46.652;21.272;2023-02-28T13:38:21;22.75;;;8.82;;
71513;SDS011;59335;46.652;21.272;2023-02-28T13:45:18;24.40;;;9.00;;
71513;SDS011;59335;46.652;21.272;2023-02-28T13:48:15;23.77;;;9.55;;
71513;SDS011;59335;46.652;21.272;2023-02-28T13:51:38;23.40;;;10.18;;
71513;SDS011;59335;46.652;21.272;2023-02-28T13:54:54;20.98;;;9.00;;
71513;SDS011;59335;46.652;21.272;2023-02-28T14:05:05;24.70;;;9.93;;
71513;SDS011;59335;46.652;21.272;2023-02-28T14:08:18;23.77;;;8.57;;
71513;SDS011;59335;46.652;21.272;2023-02-28T14:11:28;21.65;;;9.13;;
71513;SDS011;59335;46.652;21.272;2023-02-28T14:17:39;21.10;;;8.48;;
71513;SDS011;59335;46.652;21.272;2023-02-28T14:20:43;17.40;;;8.60;;
71513;SDS011;59335;46.652;21.272;2023-02-28T14:23:57;19.30;;;9.25;;
71513;SDS011;59335;46.652;21.272;2023-02-28T14:27:22;22.42;;;9.40;;
71513;SDS011;59335;46.652;21.272;2023-02-28T14:37:16;20.70;;;8.77;;
71513;SDS011;59335;46.652;21.272;2023-02-28T14:40:30;17.52;;;8.40;;
71513;SDS011;59335;46.652;21.272;2023-02-28T14:43:36;18.05;;;7.95;;
71513;SDS011;59335;46.652;21.272;2023-02-28T14:46:53;19.17;;;7.87;;
71513;SDS011;59335;46.652;21.272;2023-02-28T14:50:22;18.13;;;8.10;;
71513;SDS011;59335;46.652;21.272;2023-02-28T14:53:30;16.08;;;7.68;;
71513;SDS011;59335;46.652;21.272;2023-02-28T14:56:38;17.48;;;8.38;;
71513;SDS011;59335;46.652;21.272;2023-02-28T14:59:42;17.45;;;8.82;;
71513;SDS011;59335;46.652;21.272;2023-02-28T15:02:45;16.27;;;8.40;;
71513;SDS011;59335;46.652;21.272;2023-02-28T15:05:55;18.02;;;7.90;;
71513;SDS011;59335;46.652;21.272;2023-02-28T15:09:13;22.73;;;9.02;;
71513;SDS011;59335;46.652;21.272;2023-02-28T15:12:17;15.75;;;8.15;;
71513;SDS011;59335;46.652;21.272;2023-02-28T15:15:20;17.27;;;8.15;;
71513;SDS011;59335;46.652;21.272;2023-02-28T15:21:49;16.77;;;8.43;;
71513;SDS011;59335;46.652;21.272;2023-02-28T15:24:56;17.38;;;8.65;;
71513;SDS011;59335;46.652;21.272;2023-02-28T15:28:00;14.40;;;8.55;;
71513;SDS011;59335;46.652;21.272;2023-02-28T15:31:16;17.42;;;8.65;;
71513;SDS011;59335;46.652;21.272;2023-02-28T15:34:33;16.00;;;7.63;;
71513;SDS011;59335;46.652;21.272;2023-02-28T15:37:48;17.65;;;8.52;;
71513;SDS011;59335;46.652;21.272;2023-02-28T15:40:57;15.85;;;8.40;;
71513;SDS011;59335;46.652;21.272;2023-02-28T15:47:20;15.02;;;8.23;;
71513;SDS011;59335;46.652;21.272;2023-02-28T15:50:27;14.67;;;8.10;;
71513;SDS011;59335;46.652;21.272;2023-02-28T15:53:33;15.73;;;8.23;;
71513;SDS011;59335;46.652;21.272;2023-02-28T15:56:49;16.52;;;8.35;;
71513;SDS011;59335;46.652;21.272;2023-02-28T15:59:55;15.88;;;8.52;;
71513;SDS011;59335;46.652;21.272;2023-02-28T16:03:00;17.95;;;9.98;;
71513;SDS011;59335;46.652;21.272;2023-02-28T16:06:20;39.73;;;10.50;;
71513;SDS011;59335;46.652;21.272;2023-02-28T16:09:25;27.90;;;9.20;;
71513;SDS011;59335;46.652;21.272;2023-02-28T16:12:30;22.05;;;9.02;;
71513;SDS011;59335;46.652;21.272;2023-02-28T16:15:38;22.02;;;9.45;;
71513;SDS011;59335;46.652;21.272;2023-02-28T16:18:44;23.33;;;9.80;;
71513;SDS011;59335;46.652;21.272;2023-02-28T16:21:48;27.90;;;8.93;;
71513;SDS011;59335;46.652;21.272;2023-02-28T16:24:51;18.80;;;8.60;;
71513;SDS011;59335;46.652;21.272;2023-02-28T16:27:54;21.85;;;8.70;;
71513;SDS011;59335;46.652;21.272;2023-02-28T16:31:00;20.90;;;8.82;;
71513;SDS011;59335;46.652;21.272;2023-02-28T16:34:07;22.00;;;8.75;;
71513;SDS011;59335;46.652;21.272;2023-02-28T16:37:14;17.00;;;8.53;;
71513;SDS011;59335;46.652;21.272;2023-02-28T16:40:19;18.77;;;8.68;;
71513;SDS011;59335;46.652;21.272;2023-02-28T16:43:24;20.00;;;8.95;;
71513;SDS011;59335;46.652;21.272;2023-02-28T16:46:33;20.00;;;8.70;;
71513;SDS011;59335;46.652;21.272;2023-02-28T16:49:37;18.02;;;8.57;;
71513;SDS011;59335;46.652;21.272;2023-02-28T16:52:41;15.17;;;8.23;;
71513;SDS011;59335;46.652;21.272;2023-02-28T16:55:44;15.93;;;8.75;;
71513;SDS011;59335;46.652;21.272;2023-02-28T16:58:47;18.38;;;8.38;;
71513;SDS011;59335;46.652;21.272;2023-02-28T17:01:52;16.17;;;8.63;;
71513;SDS011;59335;46.652;21.272;2023-02-28T17:04:55;13.15;;;8.73;;
71513;SDS011;59335;46.652;21.272;2023-02-28T17:07:59;14.53;;;8.10;;
71513;SDS011;59335;46.652;21.272;2023-02-28T17:11:02;16.05;;;8.32;;
71513;SDS011;59335;46.652;21.272;2023-02-28T17:14:06;17.42;;;8.20;;
71513;SDS011;59335;46.652;21.272;2023-02-28T17:17:10;16.90;;;7.95;;
71513;SDS011;59335;46.652;21.272;2023-02-28T17:20:25;17.55;;;7.47;;
71513;SDS011;59335;46.652;21.272;2023-02-28T17:23:29;18.07;;;8.00;;
71513;SDS011;59335;46.652;21.272;2023-02-28T17:26:32;15.43;;;7.90;;
71513;SDS011;59335;46.652;21.272;2023-02-28T17:29:35;16.67;;;8.00;;
71513;SDS011;59335;46.652;21.272;2023-02-28T17:32:39;15.80;;;7.63;;
71513;SDS011;59335;46.652;21.272;2023-02-28T17:35:42;17.13;;;8.10;;
71513;SDS011;59335;46.652;21.272;2023-02-28T17:38:45;16.63;;;8.10;;
71513;SDS011;59335;46.652;21.272;2023-02-28T17:41:49;16.20;;;8.02;;
71513;SDS011;59335;46.652;21.272;2023-02-28T17:44:57;16.92;;;8.40;;
71513;SDS011;59335;46.652;21.272;2023-02-28T17:48:00;15.15;;;7.90;;
71513;SDS011;59335;46.652;21.272;2023-02-28T17:51:05;15.18;;;8.20;;
71513;SDS011;59335;46.652;21.272;2023-02-28T17:54:08;13.13;;;7.13;;
71513;SDS011;59335;46.652;21.272;2023-02-28T17:57:12;17.70;;;8.13;;
71513;SDS011;59335;46.652;21.272;2023-02-28T18:00:18;14.40;;;7.72;;
71513;SDS011;59335;46.652;21.272;2023-02-28T18:03:21;15.50;;;7.78;;
71513;SDS011;59335;46.652;21.272;2023-02-28T18:06:32;13.55;;;7.70;;
71513;SDS011;59335;46.652;21.272;2023-02-28T18:09:38;11.80;;;7.80;;
71513;SDS011;59335;46.652;21.272;2023-02-28T18:12:41;14.63;;;7.57;;
71513;SDS011;59335;46.652;21.272;2023-02-28T18:15:46;16.00;;;7.28;;
71513;SDS011;59335;46.652;21.272;2023-02-28T18:18:54;15.32;;;7.13;;
71513;SDS011;59335;46.652;21.272;2023-02-28T18:21:57;15.20;;;7.57;;
71513;SDS011;59335;46.652;21.272;2023-02-28T18:25:02;15.30;;;8.03;;
71513;SDS011;59335;46.652;21.272;2023-02-28T18:28:06;13.73;;;7.22;;
71513;SDS011;59335;46.652;21.272;2023-02-28T18:31:10;15.02;;;7.55;;
71513;SDS011;59335;46.652;21.272;2023-02-28T18:34:18;14.45;;;7.20;;
71513;SDS011;59335;46.652;21.272;2023-02-28T18:37:23;15.18;;;8.00;;
71513;SDS011;59335;46.652;21.272;2023-02-28T18:40:29;12.23;;;7.00;;
71513;SDS011;59335;46.652;21.272;2023-02-28T18:43:34;13.73;;;7.40;;
71513;SDS011;59335;46.652;21.272;2023-02-28T18:46:40;12.68;;;7.43;;
71513;SDS011;59335;46.652;21.272;2023-02-28T18:49:44;12.27;;;7.18;;
71513;SDS011;59335;46.652;21.272;2023-02-28T18:52:49;11.63;;;6.88;;
71513;SDS011;59335;46.652;21.272;2023-02-28T18:55:58;13.20;;;7.77;;
71513;SDS011;59335;46.652;21.272;2023-02-28T18:59:05;14.02;;;7.50;;
71513;SDS011;59335;46.652;21.272;2023-02-28T19:02:11;13.38;;;8.00;;
71513;SDS011;59335;46.652;21.272;2023-02-28T19:05:15;12.27;;;7.53;;
71513;SDS011;59335;46.652;21.272;2023-02-28T19:08:21;10.77;;;7.57;;
71513;SDS011;59335;46.652;21.272;2023-02-28T19:11:26;13.50;;;7.40;;
71513;SDS011;59335;46.652;21.272;2023-02-28T19:14:30;14.48;;;7.75;;
71513;SDS011;59335;46.652;21.272;2023-02-28T19:17:34;13.73;;;7.68;;
71513;SDS011;59335;46.652;21.272;2023-02-28T19:20:39;13.20;;;7.60;;
71513;SDS011;59335;46.652;21.272;2023-02-28T19:23:43;14.15;;;7.88;;
71513;SDS011;59335;46.652;21.272;2023-02-28T19:26:48;12.13;;;7.43;;
71513;SDS011;59335;46.652;21.272;2023-02-28T19:29:51;13.52;;;7.25;;
71513;SDS011;59335;46.652;21.272;2023-02-28T19:32:56;11.32;;;7.43;;
71513;SDS011;59335;46.652;21.272;2023-02-28T19:36:01;12.07;;;7.63;;
71513;SDS011;59335;46.652;21.272;2023-02-28T19:39:04;12.27;;;8.02;;
71513;SDS011;59335;46.652;21.272;2023-02-28T19:42:11;12.37;;;7.17;;
71513;SDS011;59335;46.652;21.272;2023-02-28T19:45:16;13.23;;;8.07;;
71513;SDS011;59335;46.652;21.272;2023-02-28T19:48:20;14.40;;;8.02;;
71513;SDS011;59335;46.652;21.272;2023-02-28T19:51:29;11.93;;;7.78;;
71513;SDS011;59335;46.652;21.272;2023-02-28T19:54:33;11.93;;;7.57;;
71513;SDS011;59335;46.652;21.272;2023-02-28T19:57:38;12.97;;;8.00;;
71513;SDS011;59335;46.652;21.272;2023-02-28T20:00:44;13.27;;;7.68;;
71513;SDS011;59335;46.652;21.272;2023-02-28T20:03:50;13.07;;;7.88;;
71513;SDS011;59335;46.652;21.272;2023-02-28T20:06:54;12.77;;;7.45;;
71513;SDS011;59335;46.652;21.272;2023-02-28T20:09:58;12.95;;;8.25;;
71513;SDS011;59335;46.652;21.272;2023-02-28T20:13:02;14.83;;;7.83;;
71513;SDS011;59335;46.652;21.272;2023-02-28T20:16:07;13.52;;;7.70;;
71513;SDS011;59335;46.652;21.272;2023-02-28T20:19:12;13.23;;;8.07;;
71513;SDS011;59335;46.652;21.272;2023-02-28T20:22:16;13.40;;;8.07;;
71513;SDS011;59335;46.652;21.272;2023-02-28T20:25:20;13.98;;;7.75;;
71513;SDS011;59335;46.652;21.272;2023-02-28T20:28:24;12.50;;;7.50;;
71513;SDS011;59335;46.652;21.272;2023-02-28T20:31:28;13.07;;;7.63;;
71513;SDS011;59335;46.652;21.272;2023-02-28T20:34:34;12.48;;;8.13;;
71513;SDS011;59335;46.652;21.272;2023-02-28T20:37:40;13.63;;;8.02;;
71513;SDS011;59335;46.652;21.272;2023-02-28T20:40:44;12.90;;;8.10;;
71513;SDS011;59335;46.652;21.272;2023-02-28T20:43:52;13.13;;;8.13;;
71513;SDS011;59335;46.652;21.272;2023-02-28T20:46:57;12.63;;;8.18;;
71513;SDS011;59335;46.652;21.272;2023-02-28T20:50:01;13.05;;;8.23;;
71513;SDS011;59335;46.652;21.272;2023-02-28T20:53:06;12.15;;;7.97;;
71513;SDS011;59335;46.652;21.272;2023-02-28T20:56:13;13.10;;;8.40;;
71513;SDS011;59335;46.652;21.272;2023-02-28T20:59:19;13.10;;;8.20;;